Time;durP1;ratioP1;P1;durP2;ratioP2;P2;SDS_P1;SDS_P2;PMS_P1;PMS_P2;Temp;Humidity;BMP_temperature;BMP_pressure;BME280_temperature;BME280_humidity;BME280_pressure;Samples;Min_cycle;Max_cycle;Signal;HPM_P1;HPM_P2
2021/04/19 00:01:06;;;;;;;7.23;4.57;;;6.90;99.90;;;;;;5033477;28;20220;-82
2021/04/19 00:03:32;;;;;;;5.93;4.57;;;6.90;99.90;;;;;;5049451;28;20197;-82
2021/04/19 00:05:58;;;;;;;7.07;4.77;;;6.90;99.90;;;;;;5052841;28;20207;-82
2021/04/19 00:08:24;;;;;;;7.80;4.67;;;6.90;99.90;;;;;;5050328;28;20281;-83
2021/04/19 00:10:50;;;;;;;5.87;4.40;;;6.80;99.90;;;;;;5037574;28;20563;-82
2021/04/19 00:13:16;;;;;;;6.67;3.90;;;6.80;99.90;;;;;;5069844;28;20220;-82
2021/04/19 00:15:42;;;;;;;4.47;3.80;;;6.80;99.90;;;;;;5049287;28;20194;-81
2021/04/19 00:18:08;;;;;;;10.30;5.90;;;6.90;99.90;;;;;;5051876;28;20208;-82
2021/04/19 00:20:34;;;;;;;5.43;3.43;;;6.90;99.90;;;;;;5068996;28;20220;-81
2021/04/19 00:23:00;;;;;;;19.07;4.10;;;6.80;99.90;;;;;;5068768;28;20284;-81
2021/04/19 00:25:26;;;;;;;4.60;3.07;;;6.80;99.90;;;;;;5034290;28;20262;-82
2021/04/19 00:27:52;;;;;;;6.50;4.03;;;6.80;99.90;;;;;;5053111;28;20217;-82
2021/04/19 00:30:19;;;;;;;4.33;3.63;;;6.80;99.90;;;;;;5052968;28;20192;-82
2021/04/19 00:32:45;;;;;;;6.53;3.30;;;6.80;99.90;;;;;;5050233;28;20233;-83
2021/04/19 00:35:11;;;;;;;5.27;4.53;;;6.80;99.90;;;;;;5036736;28;20232;-82
2021/04/19 00:37:37;;;;;;;6.63;3.87;;;6.80;99.90;;;;;;5049045;28;20247;-82
2021/04/19 00:40:12;;;;;;;7.17;4.37;;;6.80;99.90;;;;;;5034148;28;20224;-82
2021/04/19 00:42:39;;;;;;;3.80;3.17;;;6.80;99.90;;;;;;5064937;28;20258;-82
2021/04/19 00:45:06;;;;;;;4.83;4.07;;;6.80;99.90;;;;;;5035537;28;20231;-82
2021/04/19 00:47:34;;;;;;;5.73;3.67;;;6.80;99.90;;;;;;5031277;28;21225;-82
2021/04/19 00:49:59;;;;;;;3.37;3.07;;;6.90;99.90;;;;;;5052728;28;20213;-82
2021/04/19 00:52:26;;;;;;;8.10;4.57;;;6.90;99.90;;;;;;5034518;28;20741;-82
2021/04/19 00:54:52;;;;;;;6.23;5.23;;;6.90;99.90;;;;;;5034693;28;20662;-82
2021/04/19 00:57:18;;;;;;;4.67;3.33;;;6.90;99.90;;;;;;5053488;28;20653;-81
2021/04/19 00:59:44;;;;;;;8.03;4.00;;;7.00;99.90;;;;;;5034005;28;20221;-81
2021/04/19 01:02:10;;;;;;;7.20;4.77;;;7.00;99.90;;;;;;5018153;28;20236;-82
2021/04/19 01:04:35;;;;;;;4.87;4.43;;;7.00;99.90;;;;;;5047571;28;20725;-83
2021/04/19 01:07:01;;;;;;;6.93;3.93;;;7.00;99.90;;;;;;5032799;28;20224;-83
2021/04/19 01:09:27;;;;;;;5.87;4.00;;;7.00;99.90;;;;;;5048878;28;20189;-82
2021/04/19 01:11:53;;;;;;;5.47;4.57;;;7.10;99.90;;;;;;5019806;28;20224;-82
2021/04/19 01:14:19;;;;;;;5.37;3.57;;;7.10;99.90;;;;;;5051995;28;20227;-83
2021/04/19 01:16:45;;;;;;;4.90;4.33;;;7.10;99.90;;;;;;5070618;28;20216;-81
2021/04/19 01:19:11;;;;;;;4.43;3.47;;;7.10;99.90;;;;;;5051047;28;20278;-83
2021/04/19 01:21:36;;;;;;;5.80;4.03;;;7.10;99.90;;;;;;5035352;28;20266;-83
2021/04/19 01:24:02;;;;;;;7.17;3.70;;;7.20;99.90;;;;;;5036896;28;20266;-82
2021/04/19 01:26:28;;;;;;;6.93;4.93;;;7.20;99.90;;;;;;5050109;28;20914;-82
2021/04/19 01:28:54;;;;;;;6.93;5.17;;;7.30;99.90;;;;;;5049414;28;20221;-83
2021/04/19 01:31:20;;;;;;;6.53;3.93;;;7.20;99.90;;;;;;5049689;28;20216;-83
2021/04/19 01:33:46;;;;;;;7.33;3.43;;;7.20;99.90;;;;;;5050293;28;20220;-82
2021/04/19 01:36:12;;;;;;;8.77;5.37;;;7.20;99.90;;;;;;5051919;28;20197;-82
2021/04/19 01:38:38;;;;;;;12.17;6.17;;;7.20;99.90;;;;;;5050825;28;20816;-82
2021/04/19 01:41:05;;;;;;;8.23;5.17;;;7.20;99.90;;;;;;5034362;28;20682;-82
2021/04/19 01:43:31;;;;;;;9.27;4.90;;;7.20;99.90;;;;;;5033903;28;20217;-84
2021/04/19 01:45:57;;;;;;;5.87;4.67;;;7.20;99.90;;;;;;5049770;28;20228;-81
2021/04/19 01:48:24;;;;;;;7.00;4.90;;;7.10;99.90;;;;;;5052305;28;20189;-81
2021/04/19 01:50:52;;;;;;;5.63;4.73;;;7.10;99.90;;;;;;5033932;28;20196;-83
2021/04/19 01:53:18;;;;;;;6.90;5.23;;;7.10;99.90;;;;;;5049282;28;21185;-82
2021/04/19 01:55:45;;;;;;;8.40;5.13;;;7.10;99.90;;;;;;5067555;28;20236;-81
2021/04/19 01:58:14;;;;;;;6.97;4.97;;;7.20;99.90;;;;;;5034333;28;20224;-83
2021/04/19 02:00:43;;;;;;;7.90;5.33;;;7.20;99.90;;;;;;5048010;28;20536;-81
2021/04/19 02:03:19;;;;;;;6.43;4.37;;;7.20;99.90;;;;;;5045787;28;20602;-82
2021/04/19 02:06:17;;;;;;;8.87;5.87;;;7.20;99.90;;;;;;5065382;28;21146;-82
2021/04/19 02:08:52;;;;;;;10.93;5.53;;;7.20;99.90;;;;;;5050382;28;20224;-82
2021/04/19 02:11:39;;;;;;;5.77;4.87;;;7.30;99.90;;;;;;5046542;28;20220;-82
2021/04/19 02:14:17;;;;;;;6.63;4.43;;;7.30;99.90;;;;;;5050584;28;20266;-82
2021/04/19 02:17:13;;;;;;;7.40;4.97;;;7.20;99.90;;;;;;5054430;28;20212;-82
2021/04/19 02:19:58;;;;;;;7.33;4.90;;;7.20;99.90;;;;;;5056382;28;20220;-82
2021/04/19 02:22:31;;;;;;;9.03;4.20;;;7.30;99.90;;;;;;5052290;28;20312;-80
2021/04/19 02:25:23;;;;;;;8.47;6.30;;;7.40;99.90;;;;;;5049734;28;20250;-82
2021/04/19 02:28:00;;;;;;;9.60;6.30;;;7.40;99.90;;;;;;5065864;28;20792;-81
2021/04/19 02:30:32;;;;;;;6.13;5.37;;;7.40;99.90;;;;;;5062553;28;20189;-81
2021/04/19 02:32:59;;;;;;;8.20;5.13;;;7.50;99.90;;;;;;5051310;28;20189;-81
2021/04/19 02:35:26;;;;;;;8.30;7.23;;;7.70;99.90;;;;;;5046700;28;20240;-81
2021/04/19 02:37:57;;;;;;;12.33;5.47;;;7.70;99.90;;;;;;5046276;28;20252;-81
2021/04/19 02:40:24;;;;;;;7.20;4.73;;;7.70;99.90;;;;;;5046952;28;20237;-80
2021/04/19 02:42:52;;;;;;;9.87;6.13;;;7.70;99.90;;;;;;5046780;28;20266;-80
2021/04/19 02:45:21;;;;;;;7.13;5.87;;;7.70;99.90;;;;;;5050899;28;20236;-81
2021/04/19 02:47:47;;;;;;;7.13;4.20;;;7.80;99.90;;;;;;5028935;28;20234;-82
2021/04/19 02:50:21;;;;;;;8.60;5.17;;;7.80;99.90;;;;;;5044182;28;20304;-82
2021/04/19 02:52:47;;;;;;;5.67;5.10;;;7.90;99.90;;;;;;5044004;28;20244;-81
2021/04/19 02:55:15;;;;;;;7.47;5.07;;;7.90;99.90;;;;;;5049438;28;20303;-82
2021/04/19 02:58:01;;;;;;;8.23;5.43;;;7.90;99.90;;;;;;5033065;28;20223;-81
2021/04/19 03:00:31;;;;;;;13.20;6.50;;;7.90;99.90;;;;;;5050812;28;20186;-81
2021/04/19 03:03:01;;;;;;;10.83;6.03;;;7.90;99.90;;;;;;5050114;28;20723;-81
2021/04/19 03:05:28;;;;;;;14.53;6.50;;;7.90;99.90;;;;;;5049744;28;20216;-82
2021/04/19 03:07:59;;;;;;;9.97;6.53;;;7.90;99.90;;;;;;5034671;28;20213;-82
2021/04/19 03:10:28;;;;;;;14.33;5.07;;;7.90;99.90;;;;;;5048257;28;20221;-83
2021/04/19 03:12:56;;;;;;;8.70;5.57;;;7.90;99.90;;;;;;5047196;28;20210;-80
2021/04/19 03:15:25;;;;;;;11.37;6.37;;;8.00;99.90;;;;;;5051468;28;20190;-81
2021/04/19 03:17:57;;;;;;;9.53;5.57;;;8.00;99.90;;;;;;5049148;28;20241;-81
2021/04/19 03:20:28;;;;;;;9.37;6.50;;;8.10;99.90;;;;;;5052420;28;20213;-80
2021/04/19 03:22:54;;;;;;;8.60;4.97;;;8.10;99.90;;;;;;5049157;28;20225;-81
2021/04/19 03:25:24;;;;;;;15.13;5.00;;;8.10;99.90;;;;;;5029932;28;20278;-81
2021/04/19 03:27:53;;;;;;;7.33;6.00;;;8.20;99.90;;;;;;5045159;28;20221;-82
2021/04/19 03:30:20;;;;;;;11.23;6.93;;;8.20;99.90;;;;;;5049198;28;20189;-81
2021/04/19 03:32:49;;;;;;;14.77;7.37;;;8.20;99.90;;;;;;5050910;28;20244;-82
2021/04/19 03:35:26;;;;;;;12.57;5.80;;;8.20;99.90;;;;;;5046217;28;20709;-82
2021/04/19 03:37:53;;;;;;;7.30;5.80;;;8.20;99.90;;;;;;5043577;28;20237;-84
2021/04/19 03:40:30;;;;;;;12.60;6.90;;;8.20;99.90;;;;;;5008789;28;20229;-81
2021/04/19 03:43:03;;;;;;;18.33;7.17;;;8.10;99.90;;;;;;5048093;28;20333;-82
2021/04/19 03:45:32;;;;;;;10.37;6.27;;;8.10;99.90;;;;;;5048575;28;20713;-82
2021/04/19 03:47:59;;;;;;;13.97;5.60;;;8.10;99.90;;;;;;5065643;28;20189;-81
2021/04/19 03:50:26;;;;;;;12.07;7.83;;;8.10;99.90;;;;;;5033700;28;20220;-81
2021/04/19 03:52:54;;;;;;;9.30;7.07;;;8.10;99.90;;;;;;5036738;28;20271;-82
2021/04/19 03:55:20;;;;;;;9.53;7.47;;;8.20;99.90;;;;;;5050068;28;20769;-81
2021/04/19 03:57:48;;;;;;;16.67;7.00;;;8.10;99.90;;;;;;5015813;28;20226;-81
2021/04/19 04:00:19;;;;;;;18.63;8.57;;;8.10;99.90;;;;;;5049407;28;20204;-82
2021/04/19 04:02:55;;;;;;;13.57;8.37;;;8.20;99.90;;;;;;5046333;28;20229;-81
2021/04/19 04:05:22;;;;;;;13.90;9.50;;;8.20;99.90;;;;;;5046479;28;20328;-81
2021/04/19 04:07:49;;;;;;;19.07;9.93;;;8.20;99.90;;;;;;5031708;28;20221;-82
2021/04/19 04:10:18;;;;;;;14.30;7.60;;;8.20;99.90;;;;;;5048854;28;20228;-81
2021/04/19 04:12:44;;;;;;;15.93;7.80;;;8.20;99.90;;;;;;5051413;28;20257;-81
2021/04/19 04:15:10;;;;;;;14.77;8.47;;;8.20;99.90;;;;;;5051039;28;20255;-82
2021/04/19 04:17:36;;;;;;;11.93;7.80;;;8.20;99.90;;;;;;5031302;28;20906;-82
2021/04/19 04:20:03;;;;;;;9.57;7.87;;;8.20;99.90;;;;;;5046412;28;20268;-82
2021/04/19 04:22:29;;;;;;;11.03;6.73;;;8.30;99.90;;;;;;5049196;28;20601;-82
2021/04/19 04:24:55;;;;;;;9.23;6.97;;;8.30;99.90;;;;;;5046889;28;20224;-82
2021/04/19 04:27:22;;;;;;;14.43;8.63;;;8.30;99.90;;;;;;5047639;28;20193;-81
2021/04/19 04:29:47;;;;;;;12.77;7.73;;;8.30;99.90;;;;;;5046654;28;20629;-84
2021/04/19 04:32:13;;;;;;;13.03;8.30;;;8.40;99.90;;;;;;5048864;28;20748;-82
2021/04/19 04:34:39;;;;;;;11.87;7.30;;;8.40;99.90;;;;;;5047742;28;20221;-81
2021/04/19 04:37:06;;;;;;;12.30;7.27;;;8.40;99.90;;;;;;5030845;28;20240;-81
2021/04/19 04:39:32;;;;;;;17.33;9.00;;;8.40;99.90;;;;;;5047675;28;20203;-81
2021/04/19 04:41:57;;;;;;;18.13;8.43;;;8.40;99.90;;;;;;5031864;28;21097;-81
2021/04/19 04:44:35;;;;;;;13.43;8.20;;;8.30;99.90;;;;;;5016554;28;20210;-81
2021/04/19 04:47:18;;;;;;;14.03;8.60;;;8.30;99.90;;;;;;5048110;28;20552;-81
2021/04/19 04:50:05;;;;;;;10.50;7.13;;;8.30;99.90;;;;;;5048266;28;20683;-82
2021/04/19 04:52:38;;;;;;;12.13;8.03;;;8.40;99.90;;;;;;5048708;28;20220;-83
2021/04/19 04:55:07;;;;;;;11.27;8.50;;;8.40;99.90;;;;;;5049090;28;20294;-83
2021/04/19 04:57:34;;;;;;;18.90;8.53;;;8.50;99.90;;;;;;5032946;28;20190;-81
2021/04/19 05:00:01;;;;;;;14.17;9.07;;;8.40;99.90;;;;;;5033829;28;20190;-83
2021/04/19 05:02:29;;;;;;;10.43;9.07;;;8.50;99.90;;;;;;5023082;28;20239;-84
2021/04/19 05:04:55;;;;;;;15.13;9.67;;;8.60;99.90;;;;;;5045191;28;20221;-81
2021/04/19 05:07:21;;;;;;;17.73;10.40;;;8.60;99.90;;;;;;5032123;28;21241;-80
2021/04/19 05:09:48;;;;;;;12.57;6.97;;;8.60;99.90;;;;;;5047190;28;20221;-80
2021/04/19 05:12:15;;;;;;;18.80;10.67;;;8.60;99.90;;;;;;5051503;28;20232;-82
2021/04/19 05:14:54;;;;;;;13.30;9.47;;;8.70;99.90;;;;;;5047469;28;20209;-81
2021/04/19 05:17:20;;;;;;;14.20;8.83;;;8.70;99.90;;;;;;5040064;28;21036;-82
2021/04/19 05:19:46;;;;;;;13.63;8.17;;;8.70;99.90;;;;;;5047671;28;20209;-82
2021/04/19 05:22:12;;;;;;;13.73;7.97;;;8.90;99.90;;;;;;5032339;28;20294;-84
2021/04/19 05:24:37;;;;;;;20.43;8.97;;;9.10;99.90;;;;;;5032778;28;21197;-83
2021/04/19 05:27:03;;;;;;;14.40;9.27;;;9.30;99.90;;;;;;5032543;28;20639;-83
2021/04/19 05:29:31;;;;;;;20.00;9.60;;;9.40;99.90;;;;;;5032654;28;20217;-83
2021/04/19 05:31:57;;;;;;;12.83;10.03;;;9.90;99.90;;;;;;5051255;28;20220;-83
2021/04/19 05:34:22;;;;;;;15.13;9.30;;;10.50;99.90;;;;;;5049586;28;20217;-83
2021/04/19 05:36:49;;;;;;;13.10;8.37;;;11.30;99.90;;;;;;5016730;28;20339;-84
2021/04/19 05:39:16;;;;;;;18.40;9.33;;;12.10;99.90;;;;;;5037164;28;20958;-84
2021/04/19 05:41:43;;;;;;;16.53;9.13;;;13.20;99.90;;;;;;5045910;28;20320;-84
2021/04/19 05:44:09;;;;;;;14.93;8.60;;;14.60;99.90;;;;;;5030496;28;20230;-83
2021/04/19 05:46:35;;;;;;;18.70;8.70;;;15.30;99.90;;;;;;5047039;28;20225;-82
2021/04/19 05:49:01;;;;;;;11.43;8.20;;;15.70;99.90;;;;;;5049937;28;20629;-83
2021/04/19 05:51:31;;;;;;;13.83;8.33;;;16.10;99.90;;;;;;5018856;28;20769;-85
2021/04/19 05:53:57;;;;;;;10.40;6.60;;;17.30;99.90;;;;;;5054070;28;20196;-85
2021/04/19 05:56:58;;;;;;;8.87;6.70;;;18.50;99.90;;;;;;5019073;28;20224;-84
2021/04/19 05:59:50;;;;;;;13.77;8.87;;;18.90;99.90;;;;;;5050715;28;20220;-85
2021/04/19 06:02:28;;;;;;;13.83;7.93;;;18.40;99.90;;;;;;5053012;28;20233;-85
2021/04/19 06:05:00;;;;;;;15.70;8.90;;;18.90;99.90;;;;;;5053029;28;20221;-85
2021/04/19 06:07:34;;;;;;;12.27;7.77;;;18.00;99.90;;;;;;5051177;28;20274;-84
2021/04/19 06:10:38;;;;;;;10.70;7.03;;;18.10;99.90;;;;;;5053319;28;20223;-84
2021/04/19 06:13:07;;;;;;;14.03;7.80;;;18.10;99.90;;;;;;5017845;28;20211;-83
2021/04/19 06:15:34;;;;;;;18.20;8.50;;;17.80;99.90;;;;;;5051525;28;20201;-84
2021/04/19 06:18:00;;;;;;;12.60;7.70;;;18.20;99.90;;;;;;5053583;28;20233;-85
2021/04/19 06:20:27;;;;;;;9.77;7.13;;;18.20;99.90;;;;;;5036841;28;20233;-84
2021/04/19 06:22:54;;;;;;;10.97;7.83;;;18.50;99.90;;;;;;5068040;28;20218;-84
2021/04/19 06:25:21;;;;;;;11.13;6.77;;;17.20;99.90;;;;;;5036006;28;20339;-86
2021/04/19 06:27:48;;;;;;;14.07;8.60;;;17.00;99.90;;;;;;5055005;28;20231;-85
2021/04/19 06:30:25;;;;;;;14.40;7.57;;;17.30;99.90;;;;;;5052798;28;20190;-85
2021/04/19 06:32:52;;;;;;;12.80;7.07;;;17.30;99.90;;;;;;5052123;28;20460;-85
2021/04/19 06:35:18;;;;;;;12.10;6.63;;;17.10;99.90;;;;;;5061581;28;20274;-84
2021/04/19 06:37:56;;;;;;;10.57;6.70;;;16.70;99.90;;;;;;5052171;28;20225;-83
2021/04/19 06:40:24;;;;;;;11.13;6.77;;;16.30;99.90;;;;;;5052075;28;20213;-84
2021/04/19 06:42:53;;;;;;;13.00;7.20;;;16.00;99.90;;;;;;5048883;28;20860;-83
2021/04/19 06:45:20;;;;;;;10.93;5.70;;;15.90;99.90;;;;;;5054529;28;20621;-83
2021/04/19 06:47:47;;;;;;;10.87;6.50;;;15.80;99.90;;;;;;5051634;28;20337;-83
2021/04/19 06:50:13;;;;;;;8.87;6.40;;;15.20;99.90;;;;;;5048023;28;20304;-83
2021/04/19 06:52:46;;;;;;;13.03;7.03;;;15.10;99.90;;;;;;5032522;28;20948;-83
2021/04/19 06:55:16;;;;;;;9.63;6.23;;;15.80;99.90;;;;;;5051229;28;20229;-84
2021/04/19 06:57:47;;;;;;;9.20;5.77;;;15.90;99.90;;;;;;5048656;28;20193;-83
2021/04/19 07:00:13;;;;;;;13.57;6.83;;;16.10;99.90;;;;;;5048520;28;20225;-84
2021/04/19 07:02:54;;;;;;;12.07;6.80;;;16.60;99.90;;;;;;5045843;28;21418;-82
2021/04/19 07:05:25;;;;;;;9.63;5.97;;;17.00;99.90;;;;;;5047603;28;20291;-82
2021/04/19 07:08:20;;;;;;;10.80;6.30;;;16.90;99.90;;;;;;5049806;28;20228;-84
2021/04/19 07:10:49;;;;;;;10.93;5.80;;;16.30;99.90;;;;;;5031369;28;20213;-83
2021/04/19 07:13:17;;;;;;;9.27;5.60;;;16.40;99.90;;;;;;5032011;28;20252;-82
2021/04/19 07:15:47;;;;;;;10.80;5.30;;;15.90;99.90;;;;;;5050636;28;20233;-83
2021/04/19 07:18:15;;;;;;;6.40;5.27;;;16.30;99.90;;;;;;5051755;28;20186;-83
2021/04/19 07:20:43;;;;;;;9.53;5.00;;;16.10;99.90;;;;;;5065928;28;20224;-82
2021/04/19 07:23:09;;;;;;;7.83;4.43;;;16.10;99.90;;;;;;5049185;28;20240;-84
2021/04/19 07:25:34;;;;;;;8.13;5.67;;;15.90;99.90;;;;;;5031795;28;20206;-83
2021/04/19 07:28:02;;;;;;;7.57;4.63;;;15.10;99.90;;;;;;5019171;28;20600;-84
2021/04/19 07:30:28;;;;;;;10.07;5.63;;;15.40;99.90;;;;;;5048903;28;20201;-85
2021/04/19 07:32:54;;;;;;;7.30;5.40;;;15.80;99.90;;;;;;5038260;28;20189;-86
2021/04/19 07:35:31;;;;;;;8.23;5.37;;;15.90;99.90;;;;;;5020693;28;20217;-83
2021/04/19 07:38:07;;;;;;;8.40;4.80;;;16.20;99.90;;;;;;5049282;28;20228;-85
2021/04/19 07:40:42;;;;;;;8.43;5.43;;;15.70;99.90;;;;;;5049957;28;20227;-85
2021/04/19 07:43:11;;;;;;;8.37;4.43;;;15.80;99.90;;;;;;5050225;28;20225;-85
2021/04/19 07:45:39;;;;;;;6.40;5.37;;;15.20;99.90;;;;;;5049110;28;20186;-84
2021/04/19 07:48:05;;;;;;;6.40;4.27;;;15.60;99.90;;;;;;5050680;28;20191;-84
2021/04/19 07:50:31;;;;;;;7.20;5.27;;;15.90;99.90;;;;;;5050521;28;20213;-84
2021/04/19 07:53:04;;;;;;;4.93;4.17;;;15.80;99.90;;;;;;5025603;28;20770;-85
2021/04/19 07:55:34;;;;;;;8.30;5.03;;;16.10;99.90;;;;;;5041331;28;20323;-84
2021/04/19 07:58:00;;;;;;;7.93;4.90;;;16.30;99.90;;;;;;5052620;28;20224;-83
2021/04/19 08:00:30;;;;;;;6.17;5.30;;;16.50;99.90;;;;;;5050473;28;20232;-84
2021/04/19 08:03:07;;;;;;;7.33;4.70;;;16.40;99.90;;;;;;5051265;28;20210;-84
2021/04/19 08:05:53;;;;;;;7.10;5.00;;;16.40;99.90;;;;;;5049248;28;20756;-84
2021/04/19 08:08:28;;;;;;;5.33;4.30;;;15.90;99.90;;;;;;5043817;28;20217;-84
2021/04/19 08:11:07;;;;;;;8.50;5.10;;;15.90;99.90;;;;;;5040829;28;20213;-84
2021/04/19 08:13:32;;;;;;;6.27;4.63;;;16.40;99.90;;;;;;5049764;28;20225;-83
2021/04/19 08:16:15;;;;;;;8.23;5.10;;;16.30;99.90;;;;;;5014022;28;20301;-85
2021/04/19 08:18:41;;;;;;;8.17;4.93;;;16.50;99.90;;;;;;5048917;28;20221;-84
2021/04/19 08:21:07;;;;;;;7.80;5.03;;;16.90;99.90;;;;;;5051039;28;20208;-84
2021/04/19 08:23:44;;;;;;;7.93;4.97;;;16.60;99.90;;;;;;5032218;28;20233;-84
2021/04/19 08:26:13;;;;;;;9.03;4.60;;;16.50;99.90;;;;;;5049182;28;20213;-84
2021/04/19 08:28:44;;;;;;;7.77;4.47;;;16.30;99.90;;;;;;5046411;28;20260;-84
2021/04/19 08:31:11;;;;;;;8.80;4.50;;;16.50;99.90;;;;;;5043574;28;20691;-84
2021/04/19 08:33:37;;;;;;;8.77;5.03;;;16.60;99.90;;;;;;5038905;28;20197;-83
2021/04/19 08:36:07;;;;;;;6.93;4.70;;;16.90;99.90;;;;;;5048603;28;20694;-85
2021/04/19 08:38:34;;;;;;;6.43;4.47;;;16.70;99.90;;;;;;5062839;28;20322;-86
2021/04/19 08:40:59;;;;;;;9.33;4.83;;;16.60;99.90;;;;;;5051885;28;20229;-84
2021/04/19 08:43:28;;;;;;;8.07;4.57;;;16.50;99.90;;;;;;5033956;28;20241;-84
2021/04/19 08:45:55;;;;;;;7.07;4.60;;;17.10;99.90;;;;;;5051543;28;20283;-84
2021/04/19 08:48:21;;;;;;;8.37;4.77;;;18.20;99.90;;;;;;5038660;28;20206;-86
2021/04/19 08:50:49;;;;;;;10.63;5.27;;;18.20;99.90;;;;;;5035703;28;20251;-86
2021/04/19 08:53:17;;;;;;;9.73;4.50;;;19.00;99.90;;;;;;5034878;28;20213;-85
2021/04/19 08:55:44;;;;;;;6.93;4.70;;;19.00;99.90;;;;;;5034815;28;20225;-85
2021/04/19 08:58:12;;;;;;;9.30;5.10;;;18.70;99.90;;;;;;5035066;28;20565;-85
2021/04/19 09:00:40;;;;;;;7.53;5.07;;;18.10;99.90;;;;;;5037048;28;20258;-85
2021/04/19 09:03:08;;;;;;;9.00;5.30;;;18.50;99.90;;;;;;5053954;28;20205;-86
2021/04/19 09:05:35;;;;;;;11.70;6.60;;;18.10;99.90;;;;;;5038288;28;20303;-85
2021/04/19 09:08:16;;;;;;;8.60;5.30;;;17.90;99.90;;;;;;5050382;28;20212;-86
2021/04/19 09:10:56;;;;;;;9.30;4.97;;;18.00;99.90;;;;;;5053603;28;20235;-84
2021/04/19 09:13:29;;;;;;;7.07;5.50;;;18.20;99.90;;;;;;5052638;28;20239;-86
2021/04/19 09:16:04;;;;;;;9.90;5.90;;;18.20;99.90;;;;;;5053152;28;20216;-85
2021/04/19 09:18:31;;;;;;;10.73;5.37;;;18.20;99.90;;;;;;5070902;28;20559;-85
2021/04/19 09:20:57;;;;;;;7.87;5.63;;;18.60;99.90;;;;;;5051070;28;20189;-85
2021/04/19 09:23:25;;;;;;;9.07;5.90;;;19.10;99.90;;;;;;5034994;28;20721;-84
2021/04/19 09:25:53;;;;;;;8.73;5.37;;;18.70;99.90;;;;;;5058051;28;20220;-84
2021/04/19 09:28:41;;;;;;;10.30;5.93;;;17.80;99.90;;;;;;5041196;28;20223;-85
2021/04/19 09:31:07;;;;;;;16.03;7.30;;;17.30;99.90;;;;;;5056354;28;20314;-85
2021/04/19 09:33:34;;;;;;;11.27;6.10;;;16.50;99.90;;;;;;5057892;28;20323;-84
2021/04/19 09:36:00;;;;;;;9.70;6.77;;;16.40;99.90;;;;;;5059078;28;20181;-84
2021/04/19 09:38:38;;;;;;;10.67;6.87;;;16.40;99.90;;;;;;5057979;28;20240;-85
2021/04/19 09:41:09;;;;;;;11.97;7.07;;;15.70;99.90;;;;;;5055920;28;20304;-86
2021/04/19 09:43:40;;;;;;;10.60;7.67;;;16.30;99.90;;;;;;5074175;28;20224;-86
2021/04/19 09:46:07;;;;;;;10.27;6.53;;;17.80;99.90;;;;;;5040676;28;20224;-84
2021/04/19 09:48:34;;;;;;;11.00;7.63;;;19.10;99.90;;;;;;5077990;28;20274;-85
2021/04/19 09:51:15;;;;;;;10.23;7.23;;;18.40;99.90;;;;;;5059069;28;20653;-85
2021/04/19 09:53:45;;;;;;;10.73;7.10;;;17.40;99.90;;;;;;5057332;28;20848;-85
2021/04/19 09:56:12;;;;;;;10.50;7.10;;;17.50;99.90;;;;;;5057990;28;20225;-86
2021/04/19 09:58:40;;;;;;;10.87;7.40;;;17.00;99.90;;;;;;5075674;28;20220;-84
2021/04/19 10:01:06;;;;;;;13.63;7.63;;;16.30;99.90;;;;;;5044050;28;20216;-84
2021/04/19 10:03:33;;;;;;;11.37;7.33;;;15.80;99.90;;;;;;5059073;28;20228;-86
2021/04/19 10:06:02;;;;;;;12.20;8.40;;;15.50;99.90;;;;;;5058604;28;20284;-84
2021/04/19 10:08:29;;;;;;;13.57;8.77;;;15.80;99.90;;;;;;5057551;28;20256;-84
2021/04/19 10:10:58;;;;;;;15.60;8.30;;;15.50;99.90;;;;;;5072423;28;20216;-84
2021/04/19 10:13:31;;;;;;;15.20;7.80;;;15.10;99.90;;;;;;5055903;28;20701;-83
2021/04/19 10:16:05;;;;;;;10.53;7.17;;;14.70;99.90;;;;;;5070316;28;20216;-84
2021/04/19 10:18:35;;;;;;;13.10;8.43;;;14.90;99.90;;;;;;5073926;28;21008;-84
2021/04/19 10:21:01;;;;;;;14.90;9.47;;;15.80;99.90;;;;;;5077604;28;20199;-85
2021/04/19 10:23:32;;;;;;;14.20;8.47;;;17.60;99.90;;;;;;5057559;28;20717;-84
2021/04/19 10:25:58;;;;;;;17.77;9.57;;;17.40;99.90;;;;;;5043573;28;20204;-84
2021/04/19 10:28:35;;;;;;;12.10;7.53;;;17.60;99.90;;;;;;5056208;28;20229;-85
2021/04/19 10:31:21;;;;;;;11.47;7.90;;;18.10;99.90;;;;;;5071893;28;20470;-85
2021/04/19 10:33:53;;;;;;;12.30;7.83;;;17.40;99.90;;;;;;5072223;28;20213;-86
2021/04/19 10:36:24;;;;;;;10.33;7.63;;;17.70;99.90;;;;;;5057235;28;20235;-86
2021/04/19 10:38:56;;;;;;;12.53;6.67;;;17.30;99.90;;;;;;5055788;28;20237;-85
2021/04/19 10:41:33;;;;;;;14.17;8.17;;;16.60;99.90;;;;;;5056674;28;20690;-85
2021/04/19 10:44:00;;;;;;;8.67;6.63;;;16.10;99.90;;;;;;5055829;28;20289;-86
2021/04/19 10:46:34;;;;;;;9.87;5.77;;;16.20;99.90;;;;;;5056213;28;20577;-86
2021/04/19 10:49:01;;;;;;;10.43;6.33;;;16.50;99.90;;;;;;5073123;28;20215;-85
2021/04/19 10:51:32;;;;;;;9.97;5.40;;;16.20;99.90;;;;;;5023106;28;20351;-85
2021/04/19 10:54:00;;;;;;;9.23;7.00;;;15.60;99.90;;;;;;5037333;28;20236;-86
2021/04/19 10:56:27;;;;;;;9.60;6.90;;;16.10;99.90;;;;;;5073838;28;20269;-85
2021/04/19 10:58:56;;;;;;;7.47;5.50;;;16.10;99.90;;;;;;5055412;28;20641;-84
2021/04/19 11:01:27;;;;;;;8.50;5.83;;;16.50;99.90;;;;;;5055513;28;20239;-84
2021/04/19 11:03:53;;;;;;;8.17;5.03;;;16.10;99.90;;;;;;5055329;28;20282;-87
2021/04/19 11:06:20;;;;;;;13.83;5.73;;;15.80;99.90;;;;;;5055945;28;20180;-86
2021/04/19 11:08:59;;;;;;;8.30;5.33;;;16.20;99.90;;;;;;5071404;28;20252;-86
2021/04/19 11:11:35;;;;;;;7.07;4.63;;;16.40;99.90;;;;;;5073611;28;20224;-84
2021/04/19 11:14:23;;;;;;;7.60;5.67;;;16.40;99.90;;;;;;5054410;28;20219;-85
2021/04/19 11:17:02;;;;;;;6.63;5.77;;;16.40;99.90;;;;;;5073552;28;20216;-84
2021/04/19 11:19:42;;;;;;;10.43;5.90;;;16.20;99.90;;;;;;5055722;28;20224;-84
2021/04/19 11:22:19;;;;;;;10.70;6.03;;;16.10;99.90;;;;;;5071868;28;20227;-84
2021/04/19 11:24:45;;;;;;;7.07;5.30;;;16.10;99.90;;;;;;5070442;28;20299;-84
2021/04/19 11:27:11;;;;;;;7.13;5.90;;;15.80;99.90;;;;;;5038119;28;20195;-85
2021/04/19 11:29:42;;;;;;;9.77;6.20;;;16.00;99.90;;;;;;5057358;28;20239;-85
2021/04/19 11:32:25;;;;;;;11.43;7.37;;;15.70;99.90;;;;;;5056733;28;20275;-85
2021/04/19 11:34:51;;;;;;;10.77;7.50;;;15.20;99.90;;;;;;5071666;28;20224;-84
2021/04/19 11:37:33;;;;;;;10.97;7.47;;;15.40;99.90;;;;;;5037293;28;20245;-84
2021/04/19 11:39:59;;;;;;;7.87;5.00;;;15.20;99.90;;;;;;5053907;28;20747;-85
2021/04/19 11:42:36;;;;;;;9.03;5.20;;;15.30;99.90;;;;;;5037211;28;20220;-86
2021/04/19 11:45:04;;;;;;;3.60;3.27;;;15.30;99.90;;;;;;5056548;28;20252;-85
2021/04/19 11:47:33;;;;;;;5.50;4.40;;;14.70;99.90;;;;;;5052960;28;20682;-85
2021/04/19 11:50:00;;;;;;;3.87;2.50;;;14.70;99.90;;;;;;5056823;28;20267;-84
2021/04/19 11:52:25;;;;;;;6.13;3.53;;;15.20;99.90;;;;;;5055027;28;20685;-85
2021/04/19 11:54:52;;;;;;;3.63;2.83;;;15.40;99.90;;;;;;5053498;28;20262;-85
2021/04/19 11:57:18;;;;;;;6.10;4.47;;;15.30;99.90;;;;;;5054530;28;20585;-83
2021/04/19 11:59:44;;;;;;;5.30;3.83;;;15.70;99.90;;;;;;5052140;28;20220;-83
2021/04/19 12:02:10;;;;;;;8.13;3.53;;;15.20;99.90;;;;;;5034881;28;20305;-84
2021/04/19 12:04:36;;;;;;;5.60;4.43;;;15.30;99.90;;;;;;5053673;28;20683;-85
2021/04/19 12:07:03;;;;;;;4.67;3.40;;;15.50;99.90;;;;;;5029834;28;20225;-84
2021/04/19 12:09:29;;;;;;;6.67;4.83;;;15.60;99.90;;;;;;5043587;28;20230;-85
2021/04/19 12:11:55;;;;;;;6.00;3.80;;;15.60;99.90;;;;;;5029812;28;20543;-88
2021/04/19 12:14:21;;;;;;;7.03;4.83;;;15.50;99.90;;;;;;5029031;28;20230;-83
2021/04/19 12:16:46;;;;;;;6.47;3.43;;;15.20;99.90;;;;;;5028316;28;22234;-86
2021/04/19 12:19:13;;;;;;;2.67;2.37;;;15.20;99.90;;;;;;5030840;28;20346;-85
2021/04/19 12:21:39;;;;;;;5.03;3.53;;;15.40;99.90;;;;;;5030770;28;20251;-87
2021/04/19 12:24:06;;;;;;;5.93;3.80;;;15.40;99.90;;;;;;5012566;28;20207;-85
2021/04/19 12:26:32;;;;;;;4.57;3.57;;;15.60;99.90;;;;;;5013985;28;20221;-86
2021/04/19 12:28:57;;;;;;;7.03;2.77;;;15.40;99.90;;;;;;5026890;28;20229;-86
2021/04/19 12:31:23;;;;;;;5.73;3.17;;;15.40;99.90;;;;;;5011878;28;21163;-86
2021/04/19 12:33:49;;;;;;;5.93;3.43;;;15.30;99.90;;;;;;5019062;28;21097;-86
2021/04/19 12:36:17;;;;;;;3.67;2.97;;;15.50;99.90;;;;;;5033498;28;20963;-86
2021/04/19 12:38:44;;;;;;;7.00;4.40;;;15.40;99.90;;;;;;5037241;28;20240;-86
2021/04/19 12:41:09;;;;;;;7.13;3.90;;;15.60;99.90;;;;;;5056600;28;20375;-86
2021/04/19 12:43:35;;;;;;;6.23;3.67;;;15.60;99.90;;;;;;5057494;28;20237;-85
2021/04/19 12:46:01;;;;;;;7.10;4.03;;;15.80;99.90;;;;;;5022688;28;20212;-88
2021/04/19 12:48:27;;;;;;;5.87;3.23;;;15.60;99.90;;;;;;5037455;28;20653;-86
2021/04/19 12:50:53;;;;;;;8.53;3.43;;;15.70;99.90;;;;;;5020637;28;20197;-87
2021/04/19 12:53:18;;;;;;;5.50;2.93;;;15.70;99.90;;;;;;5034216;28;20216;-88
2021/04/19 12:55:44;;;;;;;5.67;3.53;;;15.90;99.90;;;;;;5019247;28;21106;-87
2021/04/19 12:58:15;;;;;;;7.70;4.13;;;16.10;99.90;;;;;;5035521;28;20247;-88
2021/04/19 13:00:41;;;;;;;5.73;3.47;;;15.90;99.90;;;;;;5053324;28;20185;-87